createdAt,value
2022-09-03T00:00:56.794Z,16.06
2022-09-03T00:01:56.827Z,16.06
2022-09-03T00:02:56.827Z,15.91
2022-09-03T00:03:56.770Z,15.95
2022-09-03T00:04:56.729Z,15.95
2022-09-03T00:05:56.730Z,15.99
2022-09-03T00:06:56.684Z,16.08
2022-09-03T00:07:56.702Z,15.88
2022-09-03T00:08:56.644Z,15.92
2022-09-03T00:09:56.672Z,15.95
2022-09-03T00:10:56.632Z,16.03
2022-09-03T00:11:56.609Z,15.93
2022-09-03T00:12:56.621Z,16.08
2022-09-03T00:13:56.585Z,15.96
2022-09-03T00:14:56.579Z,15.99
2022-09-03T00:15:56.560Z,15.96
2022-09-03T00:16:56.522Z,15.99
2022-09-03T00:17:56.527Z,15.92
2022-09-03T00:18:56.480Z,16.06
2022-09-03T00:19:56.487Z,15.91
2022-09-03T00:20:56.443Z,15.96
2022-09-03T00:21:56.427Z,15.95
2022-09-03T00:22:56.442Z,15.91
2022-09-03T00:23:56.388Z,15.91
2022-09-03T00:24:56.482Z,15.89
2022-09-03T00:25:56.434Z,15.98
2022-09-03T00:26:56.371Z,15.89
2022-09-03T00:27:56.373Z,15.86
2022-09-03T00:28:56.332Z,15.86
2022-09-03T00:29:56.321Z,15.85
2022-09-03T00:30:56.299Z,15.81
2022-09-03T00:31:56.261Z,15.77
2022-09-03T00:32:56.272Z,15.80
2022-09-03T00:33:56.236Z,15.76
2022-09-03T00:34:56.218Z,15.77
2022-09-03T00:35:56.225Z,15.77
2022-09-03T00:36:56.252Z,15.74
2022-09-03T00:37:56.198Z,15.80
2022-09-03T00:38:56.154Z,15.70
2022-09-03T00:39:56.172Z,15.76
2022-09-03T00:40:56.120Z,15.73
2022-09-03T00:41:56.100Z,15.67
2022-09-03T00:42:56.132Z,15.81
2022-09-03T00:43:56.076Z,15.85
2022-09-03T00:44:56.045Z,15.77
2022-09-03T00:45:56.119Z,15.78
2022-09-03T00:46:56.046Z,15.84
2022-09-03T00:48:29.969Z,15.76
2022-09-03T00:48:55.962Z,15.70
2022-09-03T00:49:55.961Z,15.85
2022-09-03T00:50:55.937Z,15.76
2022-09-03T00:51:55.915Z,15.77
2022-09-03T00:52:55.991Z,15.76
2022-09-03T00:53:55.885Z,15.60
2022-09-03T00:54:55.877Z,15.70
2022-09-03T00:55:55.897Z,15.60
2022-09-03T00:56:55.847Z,15.59
2022-09-03T00:57:55.861Z,15.59
2022-09-03T00:58:55.842Z,15.66
2022-09-03T00:59:55.821Z,15.70
2022-09-03T01:00:55.797Z,15.70
2022-09-03T01:01:55.889Z,15.68
2022-09-03T01:02:55.862Z,15.70
2022-09-03T01:03:55.731Z,15.60
2022-09-03T01:04:55.712Z,15.60
2022-09-03T01:06:01.013Z,15.66
2022-09-03T01:06:57.709Z,15.58
2022-09-03T01:07:55.686Z,15.64
2022-09-03T01:08:55.639Z,15.64
2022-09-03T01:09:55.738Z,15.77
2022-09-03T01:10:55.618Z,15.70
2022-09-03T01:11:55.596Z,15.73
2022-09-03T01:12:55.923Z,15.74
2022-09-03T01:13:55.562Z,15.70
2022-09-03T01:14:55.559Z,15.71
2022-09-03T01:15:55.604Z,15.70
2022-09-03T01:16:55.522Z,15.67
2022-09-03T01:17:55.530Z,15.73
2022-09-03T01:18:55.490Z,15.74
2022-09-03T01:19:55.459Z,15.77
2022-09-03T01:20:55.549Z,15.70
2022-09-03T01:21:55.456Z,15.74
2022-09-03T01:22:55.459Z,15.73
2022-09-03T01:23:55.414Z,15.71
2022-09-03T01:24:55.382Z,15.70
2022-09-03T01:25:55.449Z,15.62
2022-09-03T01:26:55.349Z,15.62
2022-09-03T01:27:55.360Z,15.68
2022-09-03T01:28:55.310Z,15.68
2022-09-03T01:29:55.310Z,15.66
2022-09-03T01:30:55.315Z,15.68
2022-09-03T01:31:55.303Z,15.64
2022-09-03T01:32:55.281Z,15.55
2022-09-03T01:33:55.249Z,15.81
2022-09-03T01:34:55.239Z,15.70
2022-09-03T01:35:55.195Z,15.71
2022-09-03T01:36:55.198Z,15.62
2022-09-03T01:37:55.207Z,15.74
2022-09-03T01:38:55.163Z,15.60
2022-09-03T01:39:55.194Z,15.67
2022-09-03T01:40:55.125Z,15.68
2022-09-03T01:41:55.091Z,15.59
2022-09-03T01:42:55.233Z,15.66
2022-09-03T01:43:55.068Z,15.64
2022-09-03T01:44:55.062Z,15.58
2022-09-03T01:45:55.191Z,15.60
2022-09-03T01:46:55.013Z,15.64
2022-09-03T01:47:55.080Z,15.62
2022-09-03T01:48:54.984Z,15.59
2022-09-03T01:49:54.978Z,15.62
2022-09-03T01:50:54.946Z,15.51
2022-09-03T01:51:54.939Z,15.58
2022-09-03T01:52:54.958Z,15.56
2022-09-03T01:53:54.972Z,15.49
2022-09-03T01:54:54.882Z,15.51
2022-09-03T01:55:55.001Z,15.49
2022-09-03T01:56:54.855Z,15.58
2022-09-03T01:57:54.868Z,15.49
2022-09-03T01:58:54.826Z,15.46
2022-09-03T01:59:54.796Z,15.52
2022-09-03T02:00:54.794Z,15.51
2022-09-03T02:01:54.776Z,15.59
2022-09-03T02:02:54.944Z,15.62
2022-09-03T02:03:54.739Z,15.58
2022-09-03T02:04:54.805Z,15.53
2022-09-03T02:05:54.708Z,15.52
2022-09-03T02:06:54.689Z,15.58
2022-09-03T02:07:54.697Z,15.52
2022-09-03T02:08:54.648Z,15.51
2022-09-03T02:09:54.637Z,15.43
2022-09-03T02:10:54.620Z,15.41
2022-09-03T02:11:54.599Z,15.44
2022-09-03T02:12:54.610Z,15.46
2022-09-03T02:13:54.565Z,15.43
2022-09-03T02:14:54.549Z,15.48
2022-09-03T02:15:54.636Z,15.46
2022-09-03T02:16:54.518Z,15.49
2022-09-03T02:17:54.535Z,15.48
2022-09-03T02:18:54.489Z,15.35
2022-09-03T02:19:54.515Z,15.40
2022-09-03T02:20:54.445Z,15.46
2022-09-03T02:21:54.443Z,15.37
2022-09-03T02:22:54.452Z,15.43
2022-09-03T02:23:54.405Z,15.30
2022-09-03T02:24:54.373Z,15.34
2022-09-03T02:25:54.425Z,15.37
2022-09-03T02:26:54.409Z,15.35
2022-09-03T02:27:54.374Z,15.37
2022-09-03T02:28:54.308Z,15.37
2022-09-03T02:29:54.301Z,15.35
2022-09-03T02:30:54.344Z,15.38
2022-09-03T02:31:54.269Z,15.25
2022-09-03T02:32:54.277Z,15.35
2022-09-03T02:33:54.230Z,15.37
2022-09-03T02:34:54.222Z,15.30
2022-09-03T02:35:54.422Z,15.34
2022-09-03T02:36:54.185Z,15.34
2022-09-03T02:37:54.309Z,15.27
2022-09-03T02:38:54.151Z,15.25
2022-09-03T02:39:54.176Z,15.35
2022-09-03T02:40:54.123Z,15.22
2022-09-03T02:41:54.096Z,15.30
2022-09-03T02:42:54.124Z,15.25
2022-09-03T02:43:54.082Z,15.28
2022-09-03T02:44:54.055Z,15.22
2022-09-03T02:45:54.124Z,15.23
2022-09-03T02:46:54.016Z,15.22
2022-09-03T02:47:54.037Z,15.22
2022-09-03T02:48:54.076Z,15.22
2022-09-03T02:49:53.977Z,15.07
2022-09-03T02:50:53.968Z,15.19
2022-09-03T02:51:53.939Z,15.07
2022-09-03T02:52:53.956Z,15.12
2022-09-03T02:53:53.899Z,15.09
2022-09-03T02:54:53.895Z,15.09
2022-09-03T02:55:53.910Z,15.15
2022-09-03T02:56:53.865Z,15.03
2022-09-03T02:57:53.877Z,15.05
2022-09-03T02:58:53.831Z,15.15
2022-09-03T02:59:53.819Z,15.15
2022-09-03T03:00:53.831Z,15.09
2022-09-03T03:01:53.767Z,15.04
2022-09-03T03:02:53.839Z,15.00
2022-09-03T03:03:53.754Z,15.01
2022-09-03T03:04:53.727Z,15.07
2022-09-03T03:05:53.730Z,15.04
2022-09-03T03:06:53.728Z,15.07
2022-09-03T03:07:53.704Z,14.97
2022-09-03T03:08:53.657Z,14.94
2022-09-03T03:09:53.646Z,15.03
2022-09-03T03:10:53.728Z,15.01
2022-09-03T03:11:53.615Z,15.11
2022-09-03T03:12:53.659Z,14.95
2022-09-03T03:13:53.580Z,15.01
2022-09-03T03:14:53.555Z,14.98
2022-09-03T03:15:53.565Z,15.03
2022-09-03T03:16:54.668Z,15.03
2022-09-03T03:17:53.557Z,14.87
2022-09-03T03:18:53.507Z,14.86
2022-09-03T03:19:53.479Z,15.00
2022-09-03T03:20:53.472Z,14.91
2022-09-03T03:21:53.480Z,14.83
2022-09-03T03:22:53.459Z,14.91
2022-09-03T03:23:53.416Z,14.98
2022-09-03T03:24:53.411Z,14.93
2022-09-03T03:25:53.393Z,14.83
2022-09-03T03:26:53.369Z,14.86
2022-09-03T03:27:53.380Z,14.91
2022-09-03T03:28:53.323Z,14.93
2022-09-03T03:29:53.324Z,14.90
2022-09-03T03:30:53.328Z,14.87
2022-09-03T03:31:53.285Z,14.87
2022-09-03T03:32:53.379Z,14.97
2022-09-03T03:33:53.263Z,14.86
2022-09-03T03:34:53.257Z,14.85
2022-09-03T03:35:53.245Z,14.85
2022-09-03T03:36:53.215Z,14.90
2022-09-03T03:37:53.224Z,14.85
2022-09-03T03:38:53.180Z,14.91
2022-09-03T03:39:53.197Z,14.83
2022-09-03T03:40:53.143Z,14.83
2022-09-03T03:41:53.108Z,14.91
2022-09-03T03:42:53.212Z,14.87
2022-09-03T03:43:53.103Z,14.74
2022-09-03T03:44:53.072Z,14.91
2022-09-03T03:45:53.144Z,14.83
2022-09-03T03:46:53.033Z,14.98
2022-09-03T03:47:53.041Z,14.78
2022-09-03T03:48:53.000Z,14.80
2022-09-03T03:49:52.975Z,14.86
2022-09-03T03:50:53.059Z,14.80
2022-09-03T03:51:52.954Z,14.80
2022-09-03T03:52:52.974Z,14.69
2022-09-03T03:53:52.945Z,14.71
2022-09-03T03:54:52.881Z,14.79
2022-09-03T03:55:52.895Z,14.80
2022-09-03T03:56:55.826Z,14.82
2022-09-03T03:57:52.882Z,14.82
2022-09-03T03:58:52.827Z,14.85
2022-09-03T03:59:52.813Z,14.85
2022-09-03T04:00:52.832Z,14.79
2022-09-03T04:01:52.777Z,14.82
2022-09-03T04:02:52.901Z,14.78
2022-09-03T04:03:52.742Z,14.82
2022-09-03T04:04:52.746Z,14.75
2022-09-03T04:05:52.762Z,14.82
2022-09-03T04:06:52.710Z,14.83
2022-09-03T04:07:52.722Z,14.71
2022-09-03T04:08:52.672Z,14.79
2022-09-03T04:09:52.651Z,14.80
2022-09-03T04:10:52.675Z,14.82
2022-09-03T04:11:52.608Z,14.75
2022-09-03T04:12:52.624Z,14.79
2022-09-03T04:13:52.573Z,14.85
2022-09-03T04:14:52.571Z,14.80
2022-09-03T04:15:52.565Z,14.79
2022-09-03T04:16:52.646Z,14.75
2022-09-03T04:17:52.554Z,14.75
2022-09-03T04:18:52.498Z,14.80
2022-09-03T04:19:52.482Z,14.80
2022-09-03T04:20:52.457Z,14.71
2022-09-03T04:21:52.454Z,14.87
2022-09-03T04:22:52.454Z,14.82
2022-09-03T04:23:52.414Z,14.69
2022-09-03T04:24:52.398Z,14.80
2022-09-03T04:25:52.413Z,14.83
2022-09-03T04:26:52.355Z,14.79
2022-09-03T04:27:52.358Z,14.72
2022-09-03T04:28:52.364Z,14.80
2022-09-03T04:29:52.325Z,14.78
2022-09-03T04:30:52.383Z,14.86
2022-09-03T04:31:52.280Z,14.87
2022-09-03T04:32:52.579Z,14.78
2022-09-03T04:33:52.279Z,14.83
2022-09-03T04:34:52.240Z,14.74
2022-09-03T04:35:52.247Z,14.67
2022-09-03T04:36:52.986Z,14.75
2022-09-03T04:37:53.184Z,14.74
2022-09-03T04:38:52.223Z,14.75
2022-09-03T04:39:52.246Z,14.60
2022-09-03T04:40:52.129Z,14.60
2022-09-03T04:41:52.109Z,14.60
2022-09-03T04:42:52.098Z,14.59
2022-09-03T04:43:52.117Z,14.61
2022-09-03T04:44:52.112Z,14.57
2022-09-03T04:45:52.105Z,14.61
2022-09-03T04:46:52.023Z,14.59
2022-09-03T04:47:52.016Z,14.53
2022-09-03T04:48:52.031Z,14.54
2022-09-03T04:49:51.983Z,14.57
2022-09-03T04:50:51.959Z,14.54
2022-09-03T04:51:51.950Z,14.60
2022-09-03T04:52:52.017Z,14.56
2022-09-03T04:53:51.950Z,14.46
2022-09-03T04:54:51.983Z,14.52
2022-09-03T04:55:51.952Z,14.54
2022-09-03T04:56:51.977Z,14.54
2022-09-03T04:57:52.021Z,14.45
2022-09-03T04:58:51.852Z,14.45
2022-09-03T04:59:51.798Z,14.49
2022-09-03T05:00:51.931Z,14.52
2022-09-03T05:01:51.792Z,14.36
2022-09-03T05:02:51.766Z,14.59
2022-09-03T05:03:51.799Z,15.01
2022-09-03T05:04:51.773Z,15.37
2022-09-03T05:05:52.538Z,15.78
2022-09-03T05:06:52.686Z,16.07
2022-09-03T05:07:51.686Z,16.48
2022-09-03T05:08:51.707Z,16.57
2022-09-03T05:09:51.652Z,16.95
2022-09-03T05:10:51.620Z,17.12
2022-09-03T05:11:51.617Z,17.36
2022-09-03T05:12:51.591Z,17.66
2022-09-03T05:13:51.607Z,17.98
2022-09-03T05:14:51.563Z,18.19
2022-09-03T05:15:51.564Z,18.42
2022-09-03T05:16:52.778Z,18.79
2022-09-03T05:17:51.509Z,18.79
2022-09-03T05:18:51.526Z,19.06
2022-09-03T05:19:51.491Z,19.40
2022-09-03T05:20:51.454Z,19.57
2022-09-03T05:21:51.435Z,19.72
2022-09-03T05:22:51.434Z,20.05
2022-09-03T05:23:51.432Z,20.31
2022-09-03T05:24:51.398Z,20.58
2022-09-03T05:25:51.381Z,20.82
2022-09-03T05:26:51.367Z,21.11
2022-09-03T05:27:51.340Z,21.34
2022-09-03T05:28:51.347Z,21.63
2022-09-03T05:29:51.319Z,21.75
2022-09-03T05:30:51.294Z,22.01
2022-09-03T05:31:51.325Z,22.01
2022-09-03T05:32:51.260Z,22.12
2022-09-03T05:33:51.301Z,22.31
2022-09-03T05:34:51.229Z,22.44
2022-09-03T05:35:51.204Z,22.46
2022-09-03T05:36:51.180Z,22.52
2022-09-03T05:37:51.161Z,22.42
2022-09-03T05:38:51.189Z,22.35
2022-09-03T05:39:51.172Z,22.54
2022-09-03T05:40:51.156Z,22.99
2022-09-03T05:41:51.110Z,23.18
2022-09-03T05:42:51.073Z,23.50
2022-09-03T05:43:51.089Z,23.68
2022-09-03T05:44:51.047Z,23.69
2022-09-03T05:45:51.130Z,23.86
2022-09-03T05:46:51.008Z,23.67
2022-09-03T05:47:51.003Z,23.69
2022-09-03T05:48:51.011Z,23.57
2022-09-03T05:49:50.961Z,23.41
2022-09-03T05:50:50.949Z,23.15
2022-09-03T05:51:50.955Z,22.81
2022-09-03T05:52:50.932Z,22.85
2022-09-03T05:53:50.922Z,23.04
2022-09-03T05:54:50.874Z,23.35
2022-09-03T05:55:50.865Z,23.56
2022-09-03T05:56:50.863Z,23.97
2022-09-03T05:57:50.837Z,24.06
2022-09-03T05:58:50.904Z,24.19
2022-09-03T05:59:50.931Z,24.14
2022-09-03T06:00:50.786Z,24.14
2022-09-03T06:01:53.758Z,24.23
2022-09-03T06:02:51.841Z,24.33
2022-09-03T06:03:51.109Z,24.12
2022-09-03T06:04:50.789Z,24.37
2022-09-03T06:05:50.697Z,24.15
2022-09-03T06:06:50.688Z,24.31
2022-09-03T06:07:50.660Z,24.61
2022-09-03T06:08:50.691Z,24.71
2022-09-03T06:09:50.644Z,25.12
2022-09-03T06:10:50.609Z,25.44
2022-09-03T06:11:50.607Z,25.23
2022-09-03T06:12:50.572Z,25.26
2022-09-03T06:13:50.622Z,25.69
2022-09-03T06:14:50.544Z,26.03
2022-09-03T06:15:50.547Z,26.28
2022-09-03T06:16:50.646Z,26.36
2022-09-03T06:17:50.499Z,26.68
2022-09-03T06:18:50.515Z,27.16
2022-09-03T06:19:50.527Z,27.55
2022-09-03T06:20:50.461Z,27.69
2022-09-03T06:21:50.442Z,27.96
2022-09-03T06:22:50.431Z,27.93
2022-09-03T06:23:50.460Z,27.28
2022-09-03T06:24:50.392Z,27.08
2022-09-03T06:25:50.389Z,27.13
2022-09-03T06:26:50.365Z,27.35
2022-09-03T06:27:50.332Z,27.48
2022-09-03T06:28:50.365Z,27.55
2022-09-03T06:29:50.322Z,27.71
2022-09-03T06:30:50.294Z,28.02
2022-09-03T06:31:50.360Z,27.93
2022-09-03T06:32:50.255Z,28.08
2022-09-03T06:33:50.281Z,28.35
2022-09-03T06:34:50.233Z,28.35
2022-09-03T06:35:50.325Z,28.43
2022-09-03T06:36:50.221Z,28.70
2022-09-03T06:37:50.184Z,28.70
2022-09-03T06:38:50.203Z,28.51
2022-09-03T06:39:50.238Z,28.65
2022-09-03T06:40:50.186Z,28.98
2022-09-03T06:41:50.118Z,29.11
2022-09-03T06:42:50.139Z,29.08
2022-09-03T06:43:50.129Z,29.05
2022-09-03T06:44:50.160Z,29.03
2022-09-03T06:45:50.144Z,29.07
2022-09-03T06:46:50.044Z,29.08
2022-09-03T06:47:50.051Z,28.97
2022-09-03T06:49:23.590Z,28.17
2022-09-03T06:49:50.009Z,27.78
2022-09-03T06:50:49.998Z,28.02
2022-09-03T06:51:49.988Z,28.11
2022-09-03T06:52:49.955Z,28.48
2022-09-03T06:53:49.987Z,28.45
2022-09-03T06:54:49.941Z,28.55
2022-09-03T06:55:49.929Z,28.02
2022-09-03T06:56:49.928Z,27.83
2022-09-03T06:57:52.812Z,27.11
2022-09-03T06:58:49.922Z,27.03
2022-09-03T06:59:49.882Z,27.12
2022-09-03T07:00:49.918Z,27.25
2022-09-03T07:01:49.903Z,27.78
2022-09-03T07:02:50.021Z,27.63
2022-09-03T07:03:49.827Z,27.42
2022-09-03T07:04:49.796Z,27.45
2022-09-03T07:05:49.781Z,27.06
2022-09-03T07:06:49.773Z,27.31
2022-09-03T07:07:49.741Z,27.39
2022-09-03T07:08:49.740Z,26.94
2022-09-03T07:09:49.696Z,27.03
2022-09-03T07:10:49.683Z,26.83
2022-09-03T07:11:49.670Z,27.16
2022-09-03T07:12:49.655Z,27.28
2022-09-03T07:13:49.674Z,27.69
2022-09-03T07:14:51.126Z,28.21
2022-09-03T07:15:49.658Z,27.76
2022-09-03T07:16:49.607Z,27.59
2022-09-03T07:17:49.566Z,27.61
2022-09-03T07:18:49.596Z,27.80
2022-09-03T07:19:49.553Z,27.21
2022-09-03T07:20:49.513Z,27.05
2022-09-03T07:21:50.706Z,27.18
2022-09-03T07:22:50.504Z,27.66
2022-09-03T07:23:49.500Z,27.93
2022-09-03T07:24:49.452Z,27.18
2022-09-03T07:25:49.437Z,27.13
2022-09-03T07:26:49.455Z,27.05
2022-09-03T07:27:49.403Z,27.09
2022-09-03T07:28:49.414Z,27.05
2022-09-03T07:29:49.373Z,26.96
2022-09-03T07:30:49.376Z,26.66
2022-09-03T07:31:49.392Z,26.97
2022-09-03T07:32:49.337Z,27.20
2022-09-03T07:33:49.338Z,27.49
2022-09-03T07:34:49.296Z,27.96
2022-09-03T07:35:49.273Z,28.61
2022-09-03T07:36:49.265Z,28.54
2022-09-03T07:37:49.243Z,28.85
2022-09-03T07:38:49.252Z,29.21
2022-09-03T07:39:49.284Z,29.58
2022-09-03T07:40:49.192Z,29.57
2022-09-03T07:41:49.185Z,30.00
2022-09-03T07:42:52.109Z,30.13
2022-09-03T07:43:51.174Z,29.89
2022-09-03T07:44:49.137Z,30.01
2022-09-03T07:45:49.169Z,29.73
2022-09-03T07:46:49.204Z,29.84
2022-09-03T07:47:49.082Z,30.22
2022-09-03T07:48:49.101Z,30.51
2022-09-03T07:49:49.041Z,30.28
2022-09-03T07:50:49.031Z,30.07
2022-09-03T07:51:49.006Z,30.36
2022-09-03T07:52:49.015Z,30.29
2022-09-03T07:53:49.021Z,30.59
2022-09-03T07:54:49.027Z,30.63
2022-09-03T07:55:49.957Z,30.29
2022-09-03T07:56:48.942Z,29.94
2022-09-03T07:57:48.940Z,29.49
2022-09-03T07:58:48.949Z,28.36
2022-09-03T07:59:48.908Z,28.32
2022-09-03T08:00:48.935Z,28.77
2022-09-03T08:01:48.895Z,29.00
2022-09-03T08:02:48.854Z,29.49
2022-09-03T08:03:48.930Z,30.19
2022-09-03T08:04:48.835Z,30.19
2022-09-03T08:05:48.799Z,30.25
2022-09-03T08:06:48.784Z,29.97
2022-09-03T08:07:48.779Z,29.99
2022-09-03T08:08:48.798Z,29.86
2022-09-03T08:09:48.758Z,30.19
2022-09-03T08:10:48.737Z,29.94
2022-09-03T08:11:48.736Z,30.34
2022-09-03T08:12:48.702Z,30.38
2022-09-03T08:13:48.721Z,31.03
2022-09-03T08:14:48.668Z,31.38
2022-09-03T08:15:48.697Z,31.53
2022-09-03T08:16:48.643Z,31.27
2022-09-03T08:17:48.631Z,31.16
2022-09-03T08:18:48.643Z,31.22
2022-09-03T08:19:48.631Z,30.72
2022-09-03T08:20:48.587Z,30.26
2022-09-03T08:21:49.572Z,29.94
2022-09-03T08:22:48.555Z,30.37
2022-09-03T08:23:48.563Z,30.63
2022-09-03T08:24:48.527Z,30.73
2022-09-03T08:25:48.517Z,30.94
2022-09-03T08:26:52.171Z,30.81
2022-09-03T08:27:49.481Z,30.64
2022-09-03T08:28:48.511Z,30.26
2022-09-03T08:29:48.457Z,30.46
2022-09-03T08:30:48.447Z,30.44
2022-09-03T08:31:48.496Z,30.73
2022-09-03T08:32:48.413Z,31.25
2022-09-03T08:33:48.428Z,31.95
2022-09-03T08:34:48.394Z,32.16
2022-09-03T08:35:48.364Z,31.94
2022-09-03T08:36:48.352Z,32.06
2022-09-03T08:37:48.330Z,31.98
2022-09-03T08:38:48.364Z,31.84
2022-09-03T08:39:48.350Z,31.72
2022-09-03T08:40:48.304Z,31.82
2022-09-03T08:41:48.281Z,31.82
2022-09-03T08:42:48.262Z,32.05
2022-09-03T08:43:48.318Z,32.22
2022-09-03T08:44:48.260Z,32.51
2022-09-03T08:45:48.226Z,32.72
2022-09-03T08:46:48.303Z,33.22
2022-09-03T08:47:48.216Z,33.65
2022-09-03T08:48:48.225Z,33.14
2022-09-03T08:49:48.179Z,32.34
2022-09-03T08:50:48.154Z,31.40
2022-09-03T08:51:48.143Z,30.97
2022-09-03T08:52:48.218Z,30.97
2022-09-03T08:53:48.153Z,30.66
2022-09-03T08:54:48.093Z,31.28
2022-09-03T08:55:48.077Z,31.69
2022-09-03T08:56:48.074Z,31.92
2022-09-03T08:57:48.056Z,32.03
2022-09-03T08:58:48.071Z,32.02
2022-09-03T08:59:48.020Z,32.06
2022-09-03T09:00:48.028Z,32.68
2022-09-03T09:01:48.113Z,32.88
2022-09-03T09:02:48.027Z,33.24
2022-09-03T09:03:48.044Z,32.91
2022-09-03T09:04:47.973Z,32.31
2022-09-03T09:05:47.939Z,31.90
2022-09-03T09:06:47.934Z,31.25
2022-09-03T09:07:47.912Z,31.64
2022-09-03T09:08:47.950Z,31.42
2022-09-03T09:09:47.899Z,32.09
2022-09-03T09:10:47.872Z,32.58
2022-09-03T09:11:47.884Z,32.93
2022-09-03T09:12:47.869Z,33.15
2022-09-03T09:13:47.851Z,33.37
2022-09-03T09:14:47.812Z,33.18
2022-09-03T09:15:47.872Z,33.37
2022-09-03T09:16:47.794Z,33.03
2022-09-03T09:17:47.778Z,32.63
2022-09-03T09:18:47.783Z,32.93
2022-09-03T09:19:48.774Z,32.78
2022-09-03T09:20:47.726Z,31.91
2022-09-03T09:21:47.713Z,31.35
2022-09-03T09:22:47.710Z,30.97
2022-09-03T09:23:47.714Z,31.16
2022-09-03T09:24:47.672Z,31.94
2022-09-03T09:25:47.658Z,32.53
2022-09-03T09:26:47.640Z,32.91
2022-09-03T09:27:47.624Z,32.99
2022-09-03T09:28:47.651Z,32.73
2022-09-03T09:29:47.602Z,32.76
2022-09-03T09:30:47.659Z,32.21
2022-09-03T09:31:47.577Z,32.02
2022-09-03T09:32:47.567Z,32.16
2022-09-03T09:33:47.576Z,31.75
2022-09-03T09:34:51.827Z,31.34
2022-09-03T09:35:48.517Z,31.41
2022-09-03T09:36:47.540Z,31.68
2022-09-03T09:37:47.491Z,31.95
2022-09-03T09:38:47.506Z,32.32
2022-09-03T09:39:47.519Z,32.02
2022-09-03T09:40:47.454Z,31.95
2022-09-03T09:41:47.438Z,32.43
2022-09-03T09:42:48.425Z,32.19
2022-09-03T09:43:47.440Z,32.39
2022-09-03T09:44:47.404Z,32.73
2022-09-03T09:45:47.452Z,32.03
2022-09-03T09:46:50.246Z,31.31
2022-09-03T09:47:48.350Z,30.66
2022-09-03T09:48:47.364Z,30.68
2022-09-03T09:49:47.317Z,30.57
2022-09-03T09:50:47.304Z,30.32
2022-09-03T09:51:47.289Z,30.00
2022-09-03T09:52:48.220Z,29.97
2022-09-03T09:53:47.290Z,29.71
2022-09-03T09:54:47.249Z,29.57
2022-09-03T09:55:47.235Z,29.78
2022-09-03T09:56:47.218Z,30.44
2022-09-03T09:57:47.190Z,31.05
2022-09-03T09:58:47.216Z,31.13
2022-09-03T09:59:47.178Z,30.82
2022-09-03T10:00:47.147Z,30.45
2022-09-03T10:01:47.259Z,29.78
2022-09-03T10:02:47.205Z,29.47
2022-09-03T10:03:47.167Z,29.10
2022-09-03T10:04:47.091Z,29.07
2022-09-03T10:05:47.073Z,28.83
2022-09-03T10:06:47.082Z,28.74
2022-09-03T10:07:47.058Z,28.54
2022-09-03T10:08:47.058Z,28.13
2022-09-03T10:09:47.014Z,27.65
2022-09-03T10:10:47.002Z,27.09
2022-09-03T10:11:46.987Z,26.83
2022-09-03T10:12:46.965Z,26.76
2022-09-03T10:13:46.989Z,27.20
2022-09-03T10:14:46.929Z,27.69
2022-09-03T10:15:46.950Z,28.55
2022-09-03T10:16:46.899Z,28.74
2022-09-03T10:17:46.890Z,28.83
2022-09-03T10:18:46.904Z,28.62
2022-09-03T10:19:46.840Z,28.57
2022-09-03T10:20:46.821Z,28.57
2022-09-03T10:21:46.819Z,28.28
2022-09-03T10:22:56.246Z,28.15
2022-09-03T10:23:47.828Z,28.15
2022-09-03T10:24:46.767Z,27.93
2022-09-03T10:25:46.760Z,27.69
2022-09-03T10:26:46.745Z,27.96
2022-09-03T10:27:47.725Z,27.61
2022-09-03T10:28:46.716Z,27.52
2022-09-03T10:29:46.726Z,27.59
2022-09-03T10:30:46.710Z,27.05
2022-09-03T10:31:46.657Z,27.63
2022-09-03T10:32:48.558Z,28.01
2022-09-03T10:33:47.626Z,28.42
2022-09-03T10:34:46.653Z,29.14
2022-09-03T10:35:46.613Z,29.60
2022-09-03T10:36:46.578Z,30.10
2022-09-03T10:37:46.574Z,29.91
2022-09-03T10:38:46.582Z,30.06
2022-09-03T10:39:51.544Z,30.40
2022-09-03T10:40:48.532Z,30.66
2022-09-03T10:41:46.501Z,30.42
2022-09-03T10:42:46.509Z,30.06
2022-09-03T10:43:46.468Z,30.38
2022-09-03T10:44:46.484Z,30.51
2022-09-03T10:45:46.444Z,30.45
2022-09-03T10:46:46.490Z,30.16
2022-09-03T10:47:46.504Z,30.03
2022-09-03T10:48:46.404Z,29.79
2022-09-03T10:49:46.409Z,30.01
2022-09-03T10:50:46.363Z,30.01
2022-09-03T10:51:49.554Z,29.66
2022-09-03T10:52:47.354Z,29.76
2022-09-03T10:53:46.324Z,29.54
2022-09-03T10:54:46.336Z,29.15
2022-09-03T10:55:46.292Z,29.07
2022-09-03T10:56:46.269Z,28.80
2022-09-03T10:57:46.255Z,28.60
2022-09-03T10:58:46.231Z,28.46
2022-09-03T10:59:46.267Z,28.09
2022-09-03T11:00:46.229Z,27.71
2022-09-03T11:01:46.260Z,27.40
2022-09-03T11:02:46.254Z,27.39
2022-09-03T11:03:46.167Z,27.48
2022-09-03T11:04:46.192Z,27.21
2022-09-03T11:05:46.153Z,27.25
2022-09-03T11:06:46.109Z,27.38
2022-09-03T11:07:46.115Z,27.35
2022-09-03T11:08:46.073Z,27.27
2022-09-03T11:09:46.089Z,26.87
2022-09-03T11:10:46.054Z,26.66
2022-09-03T11:11:46.041Z,26.64
2022-09-03T11:12:46.028Z,26.68
2022-09-03T11:13:46.006Z,26.61
2022-09-03T11:14:46.013Z,26.35
2022-09-03T11:15:46.027Z,25.97
2022-09-03T11:16:46.952Z,25.76
2022-09-03T11:17:45.931Z,25.54
2022-09-03T11:18:45.934Z,25.44
2022-09-03T11:19:45.948Z,25.42
2022-09-03T11:20:45.896Z,25.30
2022-09-03T11:21:45.867Z,25.30
2022-09-03T11:22:45.883Z,25.53
2022-09-03T11:23:45.834Z,25.67
2022-09-03T11:24:45.874Z,25.94
2022-09-03T11:25:45.800Z,26.04
2022-09-03T11:26:45.898Z,26.03
2022-09-03T11:27:45.781Z,25.97
2022-09-03T11:28:45.809Z,25.85
2022-09-03T11:29:45.760Z,25.89
2022-09-03T11:30:45.767Z,25.83
2022-09-03T11:31:45.720Z,25.60
2022-09-03T11:32:45.699Z,25.53
2022-09-03T11:33:45.742Z,25.42
2022-09-03T11:34:45.680Z,25.46
2022-09-03T11:35:45.662Z,25.31
2022-09-03T11:36:48.033Z,25.23
2022-09-03T11:37:46.643Z,25.29
2022-09-03T11:38:45.662Z,25.22
2022-09-03T11:39:45.638Z,25.29
2022-09-03T11:40:45.582Z,25.39
2022-09-03T11:41:45.553Z,25.39
2022-09-03T11:42:45.541Z,25.45
2022-09-03T11:43:45.536Z,25.19
2022-09-03T11:44:51.733Z,25.19
2022-09-03T11:45:46.533Z,25.27
2022-09-03T11:46:45.492Z,25.02
2022-09-03T11:47:45.472Z,25.01
2022-09-03T11:48:45.445Z,25.02
2022-09-03T11:49:45.458Z,24.94
2022-09-03T11:50:45.432Z,24.94
2022-09-03T11:51:45.413Z,24.90
2022-09-03T11:52:45.391Z,24.99
2022-09-03T11:53:45.362Z,25.07
2022-09-03T11:54:45.376Z,25.22
2022-09-03T11:55:45.339Z,25.26
2022-09-03T11:56:45.326Z,25.19
2022-09-03T11:57:45.307Z,25.09
2022-09-03T11:58:45.295Z,24.93
2022-09-03T11:59:45.306Z,24.90
2022-09-03T12:00:45.270Z,24.99
2022-09-03T12:01:45.236Z,25.04
2022-09-03T12:02:45.303Z,24.99
2022-09-03T12:03:45.225Z,24.79
2022-09-03T12:04:45.325Z,24.53
2022-09-03T12:05:45.177Z,24.51
2022-09-03T12:06:45.157Z,24.67
2022-09-03T12:07:45.153Z,24.77
2022-09-03T12:08:45.126Z,24.63
2022-09-03T12:09:45.138Z,24.68
2022-09-03T12:10:45.089Z,24.74
2022-09-03T12:11:45.076Z,24.75
2022-09-03T12:12:45.082Z,24.74
2022-09-03T12:13:45.056Z,24.80
2022-09-03T12:14:45.065Z,24.92
2022-09-03T12:15:45.044Z,24.97
2022-09-03T12:16:45.008Z,24.92
2022-09-03T12:17:44.980Z,25.07
2022-09-03T12:18:44.971Z,25.08
2022-09-03T12:19:44.975Z,25.12
2022-09-03T12:20:44.946Z,25.09
2022-09-03T12:21:44.941Z,24.99
2022-09-03T12:22:44.959Z,25.04
2022-09-03T12:23:44.909Z,25.11
2022-09-03T12:24:44.916Z,25.16
2022-09-03T12:25:44.865Z,25.12
2022-09-03T12:26:44.833Z,25.26
2022-09-03T12:27:44.869Z,25.19
2022-09-03T12:28:44.898Z,25.26
2022-09-03T12:29:44.792Z,25.17
2022-09-03T12:30:44.906Z,25.04
2022-09-03T12:31:44.756Z,25.29
2022-09-03T12:32:44.737Z,25.29
2022-09-03T12:33:44.777Z,25.42
2022-09-03T12:34:44.722Z,25.27
2022-09-03T12:36:00.548Z,25.27
2022-09-03T12:36:46.676Z,25.27
2022-09-03T12:39:10.508Z,25.29
2022-09-03T12:41:46.678Z,24.99
2022-09-03T12:42:44.594Z,24.89
2022-09-03T12:43:49.846Z,24.70
2022-09-03T12:44:46.570Z,24.77
2022-09-03T12:46:46.670Z,24.68
2022-09-03T12:47:44.582Z,24.51
2022-09-03T12:48:44.771Z,24.61
2022-09-03T12:49:44.498Z,24.68
2022-09-03T12:50:49.431Z,24.68
2022-09-03T12:51:49.838Z,24.80
2022-09-03T12:52:46.436Z,24.71
2022-09-03T12:53:44.448Z,24.66
2022-09-03T12:54:45.838Z,24.51
2022-09-03T12:55:45.388Z,24.74
2022-09-03T12:56:44.367Z,24.63